Time;durP1;ratioP1;P1;durP2;ratioP2;P2;SDS_P1;SDS_P2;PMS_P1;PMS_P2;Temp;Humidity;BMP_temperature;BMP_pressure;BME280_temperature;BME280_humidity;BME280_pressure;Samples;Min_cycle;Max_cycle;Signal;HPM_P1;HPM_P2
2021/01/11 00:00:54;;;;;;;10.73;8.07;;;0.70;99.90;;;;;;4983098;28;20757;-76
2021/01/11 00:03:19;;;;;;;11.80;7.97;;;0.70;99.90;;;;;;5000297;28;20210;-76
2021/01/11 00:05:45;;;;;;;11.87;7.87;;;0.70;99.90;;;;;;5000355;28;20230;-76
2021/01/11 00:08:11;;;;;;;11.50;8.37;;;0.70;99.90;;;;;;5000729;28;20213;-76
2021/01/11 00:10:36;;;;;;;12.10;7.97;;;0.70;99.90;;;;;;4987951;28;20186;-76
2021/01/11 00:13:02;;;;;;;9.30;7.90;;;0.70;99.90;;;;;;5000511;28;20221;-76
2021/01/11 00:15:28;;;;;;;15.23;7.50;;;0.70;99.90;;;;;;5000020;28;20206;-76
2021/01/11 00:17:54;;;;;;;12.50;8.07;;;0.70;99.90;;;;;;4999722;28;20226;-76
2021/01/11 00:20:19;;;;;;;8.70;6.93;;;0.70;99.90;;;;;;5001111;28;20206;-76
2021/01/11 00:22:45;;;;;;;9.70;7.30;;;0.80;99.90;;;;;;5006285;28;20215;-76
2021/01/11 00:25:12;;;;;;;9.07;6.80;;;0.70;99.90;;;;;;5005898;28;20723;-75
2021/01/11 00:27:38;;;;;;;9.73;6.95;;;0.80;99.90;;;;;;5000752;28;20224;-76
2021/01/11 00:30:08;;;;;;;10.30;7.30;;;0.70;99.90;;;;;;5000754;28;20277;-76
2021/01/11 00:32:39;;;;;;;8.57;6.50;;;0.70;99.90;;;;;;4999629;28;20513;-76
2021/01/11 00:35:06;;;;;;;11.93;6.38;;;0.70;99.90;;;;;;4983171;28;20175;-76
2021/01/11 00:37:33;;;;;;;13.55;7.90;;;0.70;99.90;;;;;;4987466;28;20642;-76
2021/01/11 00:39:59;;;;;;;10.02;7.70;;;0.70;99.90;;;;;;5000214;28;20286;-76
2021/01/11 00:42:25;;;;;;;9.47;7.27;;;0.70;99.90;;;;;;5000391;28;20716;-76
2021/01/11 00:44:51;;;;;;;11.27;6.63;;;0.70;99.90;;;;;;5000555;28;20194;-76
2021/01/11 00:47:16;;;;;;;8.13;6.37;;;0.80;99.90;;;;;;5000174;28;20513;-76
2021/01/11 00:49:42;;;;;;;10.80;7.23;;;0.70;99.90;;;;;;4999327;28;20452;-76
2021/01/11 00:52:08;;;;;;;9.10;6.37;;;0.70;99.90;;;;;;4992687;28;20214;-77
2021/01/11 00:54:34;;;;;;;12.40;7.63;;;0.70;99.90;;;;;;5004078;28;21471;-76
2021/01/11 00:57:00;;;;;;;13.02;6.93;;;0.80;99.90;;;;;;4992167;28;20708;-76
2021/01/11 00:59:26;;;;;;;13.02;6.40;;;0.80;99.90;;;;;;4993116;28;20205;-76
2021/01/11 01:01:53;;;;;;;12.20;6.73;;;0.80;99.90;;;;;;4992160;28;20230;-76
2021/01/11 01:04:19;;;;;;;13.05;6.88;;;0.80;99.90;;;;;;4993095;28;20194;-77
2021/01/11 01:06:45;;;;;;;15.15;6.68;;;0.80;99.90;;;;;;4992423;28;20222;-76
2021/01/11 01:09:10;;;;;;;11.93;7.47;;;0.80;99.90;;;;;;4992524;28;20692;-76
2021/01/11 01:11:41;;;;;;;8.57;6.60;;;0.70;99.90;;;;;;4991960;28;20238;-76
2021/01/11 01:14:07;;;;;;;15.35;7.18;;;0.70;99.90;;;;;;4992444;28;20229;-76
2021/01/11 01:16:33;;;;;;;8.98;6.60;;;0.70;99.90;;;;;;4992116;28;20218;-76
2021/01/11 01:18:59;;;;;;;11.07;6.10;;;0.70;99.90;;;;;;4992294;28;20277;-77
2021/01/11 01:21:25;;;;;;;10.68;6.78;;;0.60;99.90;;;;;;4992009;28;20214;-76
2021/01/11 01:23:51;;;;;;;9.10;6.20;;;0.60;99.90;;;;;;4991862;28;20261;-76
2021/01/11 01:26:18;;;;;;;11.47;7.80;;;0.60;99.90;;;;;;4991482;28;20465;-76
2021/01/11 01:28:43;;;;;;;10.82;8.38;;;0.60;99.90;;;;;;4992400;28;20489;-76
2021/01/11 01:31:09;;;;;;;12.10;7.57;;;0.50;99.90;;;;;;4991713;28;20689;-76
2021/01/11 01:33:35;;;;;;;11.93;7.67;;;0.50;99.90;;;;;;4992183;28;20213;-76
2021/01/11 01:36:01;;;;;;;10.17;6.80;;;0.50;99.90;;;;;;4991841;28;20233;-76
2021/01/11 01:38:26;;;;;;;9.35;5.95;;;0.50;99.90;;;;;;4991842;28;20735;-76
2021/01/11 01:40:52;;;;;;;10.53;6.10;;;0.50;99.90;;;;;;4992813;28;20194;-76
2021/01/11 01:43:18;;;;;;;8.40;6.47;;;0.50;99.90;;;;;;4997836;28;20229;-76
2021/01/11 01:45:44;;;;;;;9.30;6.40;;;0.50;99.90;;;;;;4980007;28;20254;-76
2021/01/11 01:48:10;;;;;;;9.67;8.00;;;0.50;99.90;;;;;;4996107;28;20766;-76
2021/01/11 01:50:38;;;;;;;13.50;6.63;;;0.40;99.90;;;;;;5008401;28;20171;-76
2021/01/11 01:53:05;;;;;;;9.50;6.50;;;0.40;99.90;;;;;;4997444;28;20210;-76
2021/01/11 01:55:31;;;;;;;9.23;5.82;;;0.40;99.90;;;;;;4997834;28;20183;-75
2021/01/11 01:58:01;;;;;;;10.45;6.82;;;0.40;99.90;;;;;;4997521;28;20272;-75
2021/01/11 02:00:27;;;;;;;10.57;5.90;;;0.40;99.90;;;;;;4997493;28;20202;-76
2021/01/11 02:02:53;;;;;;;13.07;5.23;;;0.30;99.90;;;;;;4996962;28;20218;-76
2021/01/11 02:05:18;;;;;;;6.97;5.67;;;0.30;99.90;;;;;;5006480;28;20204;-76
2021/01/11 02:07:50;;;;;;;11.73;6.67;;;0.30;99.90;;;;;;4996789;28;20233;-76
2021/01/11 02:10:37;;;;;;;9.88;6.15;;;0.30;99.90;;;;;;4980871;28;20697;-75
2021/01/11 02:13:27;;;;;;;11.73;6.00;;;0.30;99.90;;;;;;4996944;28;20214;-75
2021/01/11 02:15:57;;;;;;;9.50;5.82;;;0.20;99.90;;;;;;4997196;28;20175;-76
2021/01/11 02:18:45;;;;;;;12.77;6.20;;;0.20;99.90;;;;;;4993736;28;20207;-76
2021/01/11 02:21:40;;;;;;;8.57;6.93;;;0.20;99.90;;;;;;4995068;28;20333;-76
2021/01/11 02:24:43;;;;;;;9.23;5.40;;;0.20;99.90;;;;;;4997245;28;20205;-76
2021/01/11 02:27:42;;;;;;;11.13;5.63;;;0.20;99.90;;;;;;4994436;28;20569;-76
2021/01/11 02:30:13;;;;;;;7.93;6.05;;;0.10;99.90;;;;;;4992919;28;20194;-76
2021/01/11 02:32:48;;;;;;;7.78;5.80;;;0.20;99.90;;;;;;4990359;28;20241;-76
2021/01/11 02:35:16;;;;;;;12.07;5.93;;;0.20;99.90;;;;;;4993182;28;20201;-75
2021/01/11 02:37:42;;;;;;;9.77;5.40;;;0.10;99.90;;;;;;4995467;28;20256;-75
2021/01/11 02:40:10;;;;;;;9.98;6.20;;;0.10;99.90;;;;;;4996786;28;20202;-75
2021/01/11 02:42:36;;;;;;;8.07;6.10;;;0.10;99.90;;;;;;4995640;28;20256;-76
2021/01/11 02:45:05;;;;;;;10.70;6.93;;;0.10;99.90;;;;;;4995771;28;20232;-75
2021/01/11 02:48:07;;;;;;;9.75;6.50;;;0.10;99.90;;;;;;4995574;28;20229;-76
2021/01/11 02:51:05;;;;;;;11.57;6.13;;;0.00;99.90;;;;;;5004260;28;20193;-76
2021/01/11 02:53:43;;;;;;;9.02;6.80;;;0.00;99.90;;;;;;4968442;28;20297;-76
2021/01/11 02:56:17;;;;;;;8.98;6.10;;;-0.10;99.90;;;;;;4990654;28;20731;-76
2021/01/11 02:59:00;;;;;;;11.52;7.03;;;-0.10;99.90;;;;;;4991396;28;20198;-76
2021/01/11 03:01:30;;;;;;;7.93;5.10;;;0.00;99.90;;;;;;4990953;28;20218;-76
2021/01/11 03:03:56;;;;;;;8.45;6.07;;;0.00;99.90;;;;;;4996858;28;20198;-76
2021/01/11 03:06:32;;;;;;;9.57;6.00;;;0.00;99.90;;;;;;4990417;28;20234;-76
2021/01/11 03:09:07;;;;;;;6.70;5.50;;;0.00;99.90;;;;;;4990878;28;20564;-76
2021/01/11 03:11:38;;;;;;;12.63;6.47;;;0.00;99.90;;;;;;4990690;28;20288;-76
2021/01/11 03:14:04;;;;;;;8.68;5.78;;;0.10;99.90;;;;;;4990846;28;20301;-76
2021/01/11 03:16:30;;;;;;;9.20;6.70;;;0.10;99.90;;;;;;4990225;28;20573;-76
2021/01/11 03:18:55;;;;;;;10.50;7.13;;;0.10;99.90;;;;;;4991757;28;20660;-76
2021/01/11 03:21:21;;;;;;;8.27;5.30;;;0.10;99.90;;;;;;4995098;28;20171;-76
2021/01/11 03:23:47;;;;;;;7.00;6.27;;;0.10;99.90;;;;;;4995680;28;20194;-76
2021/01/11 03:26:22;;;;;;;9.40;6.30;;;0.10;99.90;;;;;;4995466;28;20202;-76
2021/01/11 03:28:47;;;;;;;8.65;5.95;;;0.10;99.90;;;;;;4991448;28;20205;-75
2021/01/11 03:31:13;;;;;;;7.90;6.37;;;0.10;99.90;;;;;;4980417;28;20238;-76
2021/01/11 03:33:39;;;;;;;8.83;5.90;;;0.10;99.90;;;;;;4983036;28;20191;-75
2021/01/11 03:36:04;;;;;;;9.37;6.60;;;0.10;99.90;;;;;;4998661;28;20229;-76
2021/01/11 03:38:30;;;;;;;7.33;5.93;;;0.10;99.90;;;;;;4997592;28;20260;-75
2021/01/11 03:41:08;;;;;;;8.97;5.77;;;0.10;99.90;;;;;;4998642;28;20451;-76
2021/01/11 03:43:34;;;;;;;6.95;5.80;;;0.10;99.90;;;;;;4993829;28;20220;-76
2021/01/11 03:45:59;;;;;;;9.40;6.77;;;0.00;99.90;;;;;;4993962;28;20693;-76
2021/01/11 03:48:25;;;;;;;9.00;6.90;;;0.00;99.90;;;;;;4993599;28;20616;-76
2021/01/11 03:50:51;;;;;;;7.87;6.37;;;0.00;99.90;;;;;;4993821;28;20703;-76
2021/01/11 03:53:16;;;;;;;7.93;6.73;;;0.00;99.90;;;;;;4993629;28;20217;-76
2021/01/11 03:55:42;;;;;;;6.70;5.33;;;-0.10;99.90;;;;;;4993541;28;20268;-76
2021/01/11 03:58:08;;;;;;;9.20;6.63;;;-0.10;99.90;;;;;;4993519;28;20808;-76
2021/01/11 04:00:35;;;;;;;8.88;6.47;;;-0.10;99.90;;;;;;4993991;28;20194;-76
2021/01/11 04:03:03;;;;;;;10.32;5.75;;;-0.10;99.90;;;;;;4985716;28;20258;-76
2021/01/11 04:05:28;;;;;;;8.10;5.20;;;-0.20;99.90;;;;;;4993357;28;20210;-76
2021/01/11 04:07:54;;;;;;;7.10;5.67;;;-0.20;99.90;;;;;;4993418;28;20272;-76
2021/01/11 04:10:20;;;;;;;7.80;5.47;;;-0.20;99.90;;;;;;4993948;28;20230;-76
2021/01/11 04:12:45;;;;;;;8.50;6.13;;;-0.20;99.90;;;;;;4992932;28;20280;-76
2021/01/11 04:15:12;;;;;;;11.70;6.40;;;-0.20;99.90;;;;;;4976083;28;20191;-76
2021/01/11 04:17:37;;;;;;;8.73;6.60;;;-0.30;99.90;;;;;;4992988;28;20720;-77
2021/01/11 04:20:05;;;;;;;6.93;5.87;;;-0.30;99.90;;;;;;4993688;28;20195;-76
2021/01/11 04:22:30;;;;;;;6.45;5.22;;;-0.20;99.90;;;;;;4993530;28;20217;-76
2021/01/11 04:24:56;;;;;;;8.63;6.03;;;-0.30;99.90;;;;;;4993788;28;20316;-76
2021/01/11 04:27:22;;;;;;;7.33;5.70;;;-0.30;99.90;;;;;;4992616;28;20246;-76
2021/01/11 04:29:48;;;;;;;8.30;5.63;;;-0.30;99.90;;;;;;4993475;28;20195;-76
2021/01/11 04:32:13;;;;;;;7.33;5.50;;;-0.30;99.90;;;;;;4990037;28;20566;-76
2021/01/11 04:34:39;;;;;;;7.93;5.97;;;-0.30;99.90;;;;;;4993014;28;20645;-76
2021/01/11 04:37:07;;;;;;;7.43;5.77;;;-0.30;99.90;;;;;;4992756;28;20206;-76
2021/01/11 04:39:34;;;;;;;7.00;5.13;;;-0.30;99.90;;;;;;4993661;28;20182;-76
2021/01/11 04:42:02;;;;;;;8.48;6.05;;;-0.30;99.90;;;;;;4984866;28;20213;-76
2021/01/11 04:44:30;;;;;;;5.78;5.18;;;-0.30;99.90;;;;;;4973147;28;20222;-76
2021/01/11 04:46:57;;;;;;;9.95;5.80;;;-0.40;99.90;;;;;;4989087;28;20230;-77
2021/01/11 04:49:24;;;;;;;10.93;6.85;;;-0.40;99.90;;;;;;4993139;28;20213;-76
2021/01/11 04:51:50;;;;;;;6.95;6.25;;;-0.40;99.90;;;;;;4991705;28;20202;-76
2021/01/11 04:54:18;;;;;;;8.30;5.80;;;-0.40;99.90;;;;;;4986666;28;20653;-76
2021/01/11 04:56:48;;;;;;;7.40;5.07;;;-0.40;99.90;;;;;;4992527;28;20465;-77
2021/01/11 04:59:20;;;;;;;6.70;4.97;;;-0.40;99.90;;;;;;4993002;28;20225;-75
2021/01/11 05:01:52;;;;;;;7.90;5.45;;;-0.50;99.90;;;;;;4976939;28;20210;-75
2021/01/11 05:04:18;;;;;;;6.82;5.05;;;-0.50;99.90;;;;;;4994550;28;20752;-75
2021/01/11 05:06:46;;;;;;;7.20;4.20;;;-0.50;99.90;;;;;;4993957;28;20264;-75
2021/01/11 05:09:15;;;;;;;7.38;5.53;;;-0.60;99.90;;;;;;4994702;28;20214;-75
2021/01/11 05:11:41;;;;;;;6.65;5.93;;;-0.60;99.90;;;;;;4993407;28;20268;-75
2021/01/11 05:14:08;;;;;;;6.68;4.85;;;-0.60;99.90;;;;;;4994201;28;20190;-75
2021/01/11 05:16:36;;;;;;;7.95;6.10;;;-0.60;99.90;;;;;;4993506;28;20214;-75
2021/01/11 05:19:24;;;;;;;6.85;4.70;;;-0.60;99.90;;;;;;4994207;28;20237;-75
2021/01/11 05:21:52;;;;;;;7.53;5.60;;;-0.60;99.90;;;;;;4993430;28;20252;-75
2021/01/11 05:24:34;;;;;;;6.13;4.80;;;-0.70;99.90;;;;;;4986483;28;20601;-75
2021/01/11 05:27:10;;;;;;;8.70;5.95;;;-0.70;99.90;;;;;;4992897;28;20228;-75
2021/01/11 05:29:38;;;;;;;9.27;5.95;;;-0.70;99.90;;;;;;4994135;28;20222;-76
2021/01/11 05:32:10;;;;;;;7.05;4.85;;;-0.70;99.90;;;;;;4991231;28;20218;-75
2021/01/11 05:34:49;;;;;;;5.60;4.95;;;-0.70;99.90;;;;;;4993718;28;20186;-76
2021/01/11 05:37:38;;;;;;;7.25;4.75;;;-0.70;99.90;;;;;;4992786;28;20216;-75
2021/01/11 05:40:13;;;;;;;9.73;5.18;;;-0.80;99.90;;;;;;4993645;28;20201;-75
2021/01/11 05:42:40;;;;;;;6.93;4.90;;;-0.70;99.90;;;;;;4993188;28;20225;-75
2021/01/11 05:45:10;;;;;;;9.50;5.25;;;-0.70;99.90;;;;;;4993437;28;20209;-75
2021/01/11 05:47:59;;;;;;;7.78;5.63;;;-0.70;99.90;;;;;;4993068;28;20289;-75
2021/01/11 05:50:29;;;;;;;8.15;5.20;;;-0.70;99.90;;;;;;4975665;28;20190;-75
2021/01/11 05:52:55;;;;;;;6.22;5.60;;;-0.80;99.90;;;;;;4987796;28;20211;-75
2021/01/11 05:55:32;;;;;;;7.30;5.57;;;-0.80;99.90;;;;;;4991779;28;20277;-76
2021/01/11 05:58:03;;;;;;;8.23;4.78;;;-0.80;99.90;;;;;;4991578;28;20212;-76
2021/01/11 06:00:33;;;;;;;8.32;5.50;;;-0.90;99.90;;;;;;4991660;28;20194;-76
2021/01/11 06:03:01;;;;;;;6.60;5.47;;;-0.90;99.90;;;;;;4990786;28;20214;-76
2021/01/11 06:05:28;;;;;;;8.80;6.05;;;-0.90;99.90;;;;;;4990961;28;20565;-76
2021/01/11 06:07:54;;;;;;;8.20;5.22;;;-0.90;99.90;;;;;;4990982;28;20210;-76
2021/01/11 06:10:21;;;;;;;5.75;4.78;;;-1.00;99.90;;;;;;4990996;28;20558;-76
2021/01/11 06:12:49;;;;;;;7.47;5.22;;;-1.00;99.90;;;;;;4990727;28;20309;-76
2021/01/11 06:15:20;;;;;;;6.60;5.20;;;-0.90;99.90;;;;;;4991044;28;20248;-76
2021/01/11 06:17:48;;;;;;;6.97;4.80;;;-0.90;99.90;;;;;;4990245;28;20236;-76
2021/01/11 06:20:21;;;;;;;6.22;4.40;;;-0.90;99.90;;;;;;4991273;28;20194;-76
2021/01/11 06:22:46;;;;;;;5.78;4.80;;;-1.00;99.90;;;;;;4999584;28;20643;-76
2021/01/11 06:25:18;;;;;;;10.23;5.43;;;-0.90;99.90;;;;;;4990520;28;20273;-77
2021/01/11 06:27:55;;;;;;;7.35;5.25;;;-1.00;99.90;;;;;;4990356;28;20218;-76
2021/01/11 06:30:33;;;;;;;7.47;5.55;;;-1.00;99.90;;;;;;4990990;28;20256;-76
2021/01/11 06:33:28;;;;;;;7.93;5.82;;;-0.90;99.90;;;;;;4972774;28;20632;-76
2021/01/11 06:35:54;;;;;;;8.93;5.35;;;-0.90;99.90;;;;;;4977722;28;20245;-76
2021/01/11 06:38:26;;;;;;;6.90;5.83;;;-0.90;99.90;;;;;;4990139;28;20238;-76
2021/01/11 06:41:06;;;;;;;7.53;5.40;;;-1.00;99.90;;;;;;4990640;28;20206;-75
2021/01/11 06:43:38;;;;;;;6.63;4.55;;;-1.00;99.90;;;;;;4990471;28;20253;-75
2021/01/11 06:46:04;;;;;;;8.77;5.95;;;-1.00;99.90;;;;;;4989912;28;20293;-76
2021/01/11 06:48:34;;;;;;;8.90;6.47;;;-1.00;99.90;;;;;;4990931;28;20159;-76
2021/01/11 06:51:10;;;;;;;8.95;5.15;;;-1.00;99.90;;;;;;4990773;28;20289;-75
2021/01/11 06:53:39;;;;;;;6.20;5.45;;;-1.00;99.90;;;;;;4971747;28;20238;-76
2021/01/11 06:56:06;;;;;;;7.07;5.38;;;-1.00;99.90;;;;;;4971226;28;20301;-76
2021/01/11 06:58:34;;;;;;;8.02;5.63;;;-1.00;99.90;;;;;;4991035;28;20170;-75
2021/01/11 07:01:28;;;;;;;6.47;5.15;;;-1.00;99.90;;;;;;5001316;28;20241;-76
2021/01/11 07:03:53;;;;;;;7.95;5.53;;;-1.00;99.90;;;;;;5008483;28;20212;-77
2021/01/11 07:06:45;;;;;;;7.13;5.30;;;-1.10;99.90;;;;;;4988417;28;20273;-76
2021/01/11 07:09:19;;;;;;;6.03;4.95;;;-1.00;99.90;;;;;;4984986;28;20241;-76
2021/01/11 07:11:47;;;;;;;8.73;4.75;;;-1.00;99.90;;;;;;4993169;28;20213;-76
2021/01/11 07:14:14;;;;;;;6.70;5.10;;;-1.00;99.90;;;;;;4994456;28;20190;-76
2021/01/11 07:16:41;;;;;;;10.77;5.50;;;-1.00;99.90;;;;;;4993542;28;20206;-76
2021/01/11 07:19:07;;;;;;;7.85;5.30;;;-1.00;99.90;;;;;;4994046;28;20189;-76
2021/01/11 07:21:35;;;;;;;9.70;4.90;;;-1.00;99.90;;;;;;4993505;28;20214;-75
2021/01/11 07:24:03;;;;;;;10.65;5.95;;;-1.00;99.90;;;;;;4994428;28;20608;-75
2021/01/11 07:26:30;;;;;;;6.30;5.25;;;-1.00;99.90;;;;;;4994262;28;20277;-75
2021/01/11 07:28:58;;;;;;;7.05;5.20;;;-1.00;99.90;;;;;;4994305;28;20257;-75
2021/01/11 07:31:26;;;;;;;7.30;5.10;;;-1.00;99.90;;;;;;4993983;28;20292;-75
2021/01/11 07:33:55;;;;;;;7.05;4.72;;;-1.00;99.90;;;;;;4998873;28;20222;-76
2021/01/11 07:36:21;;;;;;;5.78;4.07;;;-0.90;99.90;;;;;;4992930;28;20670;-76
2021/01/11 07:38:48;;;;;;;6.78;5.53;;;-0.90;99.90;;;;;;4993679;28;20221;-76
2021/01/11 07:41:24;;;;;;;6.32;5.15;;;-0.80;99.90;;;;;;4993090;28;20600;-75
2021/01/11 07:43:51;;;;;;;10.25;4.22;;;-0.80;99.90;;;;;;4994152;28;20182;-75
2021/01/11 07:46:23;;;;;;;8.68;5.40;;;-0.70;99.90;;;;;;4992786;28;20253;-76
2021/01/11 07:48:49;;;;;;;5.95;4.95;;;-0.70;99.90;;;;;;4992740;28;20777;-75
2021/01/11 07:51:15;;;;;;;7.93;5.47;;;-0.60;99.90;;;;;;5000707;28;20207;-77
2021/01/11 07:53:41;;;;;;;7.00;4.60;;;-0.50;99.90;;;;;;4976441;28;20278;-75
2021/01/11 07:56:08;;;;;;;8.90;5.23;;;-0.50;99.90;;;;;;4986742;28;20766;-76
2021/01/11 07:58:36;;;;;;;6.10;5.18;;;-0.40;99.90;;;;;;5004692;28;20801;-75
2021/01/11 08:01:03;;;;;;;12.27;5.50;;;-0.30;99.90;;;;;;5000322;28;20198;-75
2021/01/11 08:03:29;;;;;;;9.70;5.35;;;-0.20;99.90;;;;;;4985540;28;20234;-75
2021/01/11 08:06:03;;;;;;;8.53;5.57;;;-0.20;99.90;;;;;;4991260;28;20299;-75
2021/01/11 08:08:34;;;;;;;11.50;5.65;;;-0.20;99.90;;;;;;4993554;28;20792;-75
2021/01/11 08:11:03;;;;;;;9.55;5.85;;;-0.20;99.90;;;;;;4993616;28;20199;-75
2021/01/11 08:13:29;;;;;;;10.98;6.97;;;-0.10;99.90;;;;;;4993841;28;20294;-75
2021/01/11 08:16:08;;;;;;;11.33;6.60;;;0.00;99.90;;;;;;4993779;28;20285;-75
2021/01/11 08:18:34;;;;;;;9.60;6.28;;;0.00;99.90;;;;;;4991617;28;20537;-75
2021/01/11 08:21:11;;;;;;;10.35;6.88;;;0.00;99.90;;;;;;4993979;28;20194;-76
2021/01/11 08:23:38;;;;;;;11.60;6.82;;;0.10;99.90;;;;;;5002494;28;21185;-75
2021/01/11 08:26:10;;;;;;;11.98;7.78;;;0.20;99.90;;;;;;5012735;28;20312;-76
2021/01/11 08:28:37;;;;;;;8.70;7.15;;;0.10;99.90;;;;;;4998446;28;20217;-75
2021/01/11 08:31:04;;;;;;;10.70;6.47;;;0.20;99.90;;;;;;5007469;28;20233;-76
2021/01/11 08:33:31;;;;;;;9.13;6.32;;;0.20;99.90;;;;;;4991241;28;20297;-76
2021/01/11 08:36:23;;;;;;;8.10;6.78;;;0.10;99.90;;;;;;4974981;28;20214;-76
2021/01/11 08:39:05;;;;;;;11.93;7.82;;;0.20;99.90;;;;;;5011487;28;20216;-75
2021/01/11 08:41:41;;;;;;;11.05;6.45;;;0.20;99.90;;;;;;5009522;28;20234;-76
2021/01/11 08:44:24;;;;;;;9.50;6.85;;;0.20;99.90;;;;;;5003161;28;20209;-76
2021/01/11 08:46:54;;;;;;;13.68;7.53;;;0.40;99.90;;;;;;5011062;28;20229;-76
2021/01/11 08:49:20;;;;;;;11.85;7.25;;;0.40;99.90;;;;;;4992674;28;20593;-76
2021/01/11 08:51:48;;;;;;;12.20;7.82;;;0.50;99.90;;;;;;5002116;28;20226;-76
2021/01/11 08:54:27;;;;;;;10.77;7.82;;;0.40;99.90;;;;;;4998156;28;20190;-76
2021/01/11 08:56:55;;;;;;;10.50;7.28;;;0.50;99.90;;;;;;4990323;28;20218;-76
2021/01/11 08:59:22;;;;;;;8.65;6.35;;;0.40;99.90;;;;;;4997360;28;20178;-75
2021/01/11 09:01:47;;;;;;;13.55;8.23;;;0.50;99.90;;;;;;4993105;28;20256;-76
2021/01/11 09:04:31;;;;;;;11.93;7.90;;;0.40;99.90;;;;;;4991434;28;20202;-76
2021/01/11 09:07:05;;;;;;;10.88;6.95;;;0.40;99.90;;;;;;5001223;28;20552;-76
2021/01/11 09:09:32;;;;;;;12.48;7.90;;;0.50;99.90;;;;;;4996130;28;20214;-76
2021/01/11 09:12:06;;;;;;;10.93;8.20;;;0.60;99.90;;;;;;5006597;28;20289;-76
2021/01/11 09:14:33;;;;;;;10.00;8.10;;;0.60;99.90;;;;;;4997817;28;20194;-76
2021/01/11 09:17:04;;;;;;;8.90;7.50;;;0.60;99.90;;;;;;4999873;28;20210;-76
2021/01/11 09:19:31;;;;;;;9.32;7.35;;;0.50;99.90;;;;;;4998548;28;20180;-77
2021/01/11 09:22:17;;;;;;;9.70;7.15;;;0.60;99.90;;;;;;5010057;28;20276;-77
2021/01/11 09:24:46;;;;;;;9.43;7.10;;;0.70;99.90;;;;;;4992634;28;20248;-76
2021/01/11 09:27:11;;;;;;;10.23;7.10;;;0.80;99.90;;;;;;4993312;28;20229;-76
2021/01/11 09:29:37;;;;;;;11.40;7.17;;;0.80;99.90;;;;;;4993840;28;20179;-76
2021/01/11 09:32:05;;;;;;;8.30;6.43;;;0.70;99.90;;;;;;4993068;28;20239;-76
2021/01/11 09:34:30;;;;;;;11.55;7.50;;;0.70;99.90;;;;;;4993358;28;20859;-77
2021/01/11 09:36:56;;;;;;;9.73;7.30;;;0.70;99.90;;;;;;5004942;28;20218;-77
2021/01/11 09:39:22;;;;;;;15.83;7.80;;;0.70;99.90;;;;;;5007017;28;20190;-77
2021/01/11 09:41:51;;;;;;;9.67;6.70;;;0.60;99.90;;;;;;5001674;28;20253;-76
2021/01/11 09:44:18;;;;;;;8.80;6.60;;;0.70;99.90;;;;;;5005677;28;20492;-76
2021/01/11 09:46:47;;;;;;;9.10;5.78;;;0.70;99.90;;;;;;4990616;28;20226;-75
2021/01/11 09:49:13;;;;;;;9.85;6.60;;;0.70;99.90;;;;;;4997144;28;20202;-76
2021/01/11 09:51:39;;;;;;;8.70;6.60;;;0.70;99.90;;;;;;5000267;28;20237;-76
2021/01/11 09:54:06;;;;;;;8.57;5.80;;;0.80;99.90;;;;;;4996388;28;20444;-76
2021/01/11 09:56:32;;;;;;;7.78;5.45;;;0.80;99.90;;;;;;5009169;28;20220;-78
2021/01/11 09:58:58;;;;;;;8.35;6.22;;;0.80;99.90;;;;;;5009081;28;20223;-77
2021/01/11 10:01:24;;;;;;;6.63;5.10;;;0.80;99.90;;;;;;5010278;28;20218;-76
2021/01/11 10:03:49;;;;;;;8.30;6.00;;;0.90;99.90;;;;;;4997813;28;20684;-77
2021/01/11 10:06:16;;;;;;;10.63;6.23;;;0.80;99.90;;;;;;4999089;28;20237;-77
2021/01/11 10:08:42;;;;;;;8.43;6.13;;;0.90;99.90;;;;;;5009786;28;20707;-76
2021/01/11 10:11:15;;;;;;;10.07;7.15;;;1.00;99.90;;;;;;4996487;28;20181;-78
2021/01/11 10:13:41;;;;;;;8.75;6.25;;;1.00;99.90;;;;;;5005774;28;20194;-77
2021/01/11 10:16:07;;;;;;;7.37;5.90;;;1.00;99.90;;;;;;5010053;28;20177;-76
2021/01/11 10:18:33;;;;;;;9.63;6.03;;;1.00;99.90;;;;;;5000186;28;20432;-76
2021/01/11 10:20:59;;;;;;;7.10;5.90;;;1.00;99.90;;;;;;4999758;28;20232;-77
2021/01/11 10:23:26;;;;;;;9.13;6.27;;;1.00;99.90;;;;;;4991420;28;21002;-76
2021/01/11 10:25:51;;;;;;;8.48;6.28;;;1.10;99.90;;;;;;5009488;28;20194;-76
2021/01/11 10:28:17;;;;;;;7.43;5.40;;;1.00;99.90;;;;;;5006261;28;20696;-75
2021/01/11 10:30:43;;;;;;;8.73;6.60;;;1.10;99.90;;;;;;4992263;28;20236;-76
2021/01/11 10:33:08;;;;;;;7.60;5.83;;;1.10;99.90;;;;;;4991160;28;20674;-77
2021/01/11 10:35:34;;;;;;;7.70;5.83;;;1.20;99.90;;;;;;4994982;28;20660;-76
2021/01/11 10:38:00;;;;;;;5.70;4.60;;;1.20;99.90;;;;;;4992677;28;20581;-76
2021/01/11 10:40:25;;;;;;;6.80;5.20;;;1.20;99.90;;;;;;5006121;28;20246;-77
2021/01/11 10:42:51;;;;;;;6.97;5.53;;;1.20;99.90;;;;;;4991568;28;20210;-76
2021/01/11 10:45:17;;;;;;;8.00;5.50;;;1.20;99.90;;;;;;5006975;28;20163;-75
2021/01/11 10:47:43;;;;;;;5.88;4.82;;;1.20;99.90;;;;;;4991829;28;20218;-76
2021/01/11 10:50:09;;;;;;;8.57;5.43;;;1.30;99.90;;;;;;4991216;28;20189;-76
2021/01/11 10:52:35;;;;;;;7.95;5.75;;;1.30;99.90;;;;;;5005581;28;20222;-76
2021/01/11 10:55:00;;;;;;;8.63;5.60;;;1.30;99.90;;;;;;4991147;28;20217;-76
2021/01/11 10:57:26;;;;;;;5.73;4.67;;;1.20;99.90;;;;;;4991949;28;20222;-76
2021/01/11 10:59:52;;;;;;;8.70;5.70;;;1.30;99.90;;;;;;4992593;28;20527;-76
2021/01/11 11:02:18;;;;;;;7.20;5.47;;;1.30;99.90;;;;;;5009181;28;20590;-75
2021/01/11 11:04:45;;;;;;;8.40;5.30;;;1.30;99.90;;;;;;4995508;28;20284;-77
2021/01/11 11:07:12;;;;;;;8.27;5.00;;;1.30;99.90;;;;;;5007214;28;20304;-77
2021/01/11 11:09:37;;;;;;;7.28;5.43;;;1.30;99.90;;;;;;5010248;28;20253;-77
2021/01/11 11:12:03;;;;;;;6.13;4.20;;;1.40;99.90;;;;;;5001260;28;20256;-77
2021/01/11 11:14:29;;;;;;;5.20;4.27;;;1.40;99.90;;;;;;4990119;28;20199;-76
2021/01/11 11:16:55;;;;;;;5.60;4.50;;;1.40;99.90;;;;;;5008940;28;20672;-76
2021/01/11 11:19:20;;;;;;;6.90;4.17;;;1.50;99.90;;;;;;5005316;28;20190;-76
2021/01/11 11:21:47;;;;;;;6.40;4.67;;;1.60;99.90;;;;;;5007140;28;20299;-76
2021/01/11 11:24:13;;;;;;;7.53;5.10;;;1.60;99.90;;;;;;5008517;28;20252;-76
2021/01/11 11:26:38;;;;;;;5.90;4.20;;;1.60;99.90;;;;;;4991030;28;20218;-76
2021/01/11 11:29:04;;;;;;;6.60;4.60;;;1.70;99.90;;;;;;5005229;28;20209;-76
2021/01/11 11:31:33;;;;;;;8.25;5.10;;;1.70;99.90;;;;;;4992155;28;20573;-76
2021/01/11 11:33:59;;;;;;;6.88;5.43;;;1.70;99.90;;;;;;5007556;28;20669;-76
2021/01/11 11:36:25;;;;;;;5.97;4.35;;;1.70;99.90;;;;;;4991930;28;20245;-77
2021/01/11 11:38:50;;;;;;;6.70;4.80;;;1.80;99.90;;;;;;4994525;28;20194;-76
2021/01/11 11:41:19;;;;;;;5.63;4.97;;;1.70;99.90;;;;;;4990219;28;20262;-76
2021/01/11 11:43:46;;;;;;;5.93;4.45;;;1.70;99.90;;;;;;5002232;28;20656;-76
2021/01/11 11:46:13;;;;;;;6.18;4.70;;;1.70;99.90;;;;;;4990718;28;20198;-76
2021/01/11 11:48:39;;;;;;;5.65;4.75;;;1.70;99.90;;;;;;4991417;28;20202;-76
2021/01/11 11:51:04;;;;;;;6.13;5.53;;;1.70;99.90;;;;;;4996484;28;20175;-76
2021/01/11 11:53:30;;;;;;;6.90;5.07;;;1.70;99.90;;;;;;5005588;28;20190;-76
2021/01/11 11:55:56;;;;;;;6.80;4.20;;;1.80;99.90;;;;;;4996195;28;20441;-76
2021/01/11 11:58:22;;;;;;;6.00;4.63;;;1.80;99.90;;;;;;5012017;28;20214;-76
2021/01/11 12:00:48;;;;;;;6.25;4.75;;;1.80;99.90;;;;;;4996759;28;20175;-76
2021/01/11 12:03:13;;;;;;;6.57;4.97;;;1.80;99.90;;;;;;4998763;28;20627;-76
2021/01/11 12:05:39;;;;;;;8.33;4.80;;;1.80;99.90;;;;;;5008849;28;20166;-76
2021/01/11 12:08:08;;;;;;;8.00;5.33;;;1.80;99.90;;;;;;4995811;28;20452;-76
2021/01/11 12:10:34;;;;;;;5.20;4.70;;;1.90;99.90;;;;;;4996352;28;20414;-76
2021/01/11 12:13:00;;;;;;;6.10;4.20;;;1.90;99.90;;;;;;5011021;28;20217;-76
2021/01/11 12:15:25;;;;;;;5.00;4.23;;;1.90;99.90;;;;;;5014092;28;20170;-76
2021/01/11 12:17:51;;;;;;;9.03;5.40;;;1.90;99.90;;;;;;5007476;28;20294;-76
2021/01/11 12:20:17;;;;;;;7.37;5.40;;;1.90;99.90;;;;;;5007548;28;20182;-77
2021/01/11 12:22:42;;;;;;;8.73;4.90;;;1.90;99.90;;;;;;4993443;28;20206;-76
2021/01/11 12:25:09;;;;;;;6.00;4.47;;;1.90;99.90;;;;;;4996157;28;20174;-76
2021/01/11 12:27:35;;;;;;;6.10;5.03;;;2.00;99.90;;;;;;4999006;28;20656;-77
2021/01/11 12:30:01;;;;;;;6.43;5.20;;;2.00;99.90;;;;;;4997107;28;20190;-76
2021/01/11 12:32:27;;;;;;;5.50;4.72;;;2.00;99.90;;;;;;5013735;28;20209;-76
2021/01/11 12:34:52;;;;;;;4.88;4.22;;;2.00;99.90;;;;;;5013041;28;20240;-76
2021/01/11 12:37:19;;;;;;;6.80;3.63;;;2.10;99.90;;;;;;5007904;28;20558;-76
2021/01/11 12:39:45;;;;;;;6.35;3.67;;;2.10;99.90;;;;;;5002310;28;20186;-77
2021/01/11 12:42:12;;;;;;;5.18;3.83;;;2.10;99.90;;;;;;4994932;28;20851;-76
2021/01/11 12:44:39;;;;;;;5.25;3.75;;;2.10;99.90;;;;;;4996361;28;20198;-76
2021/01/11 12:47:06;;;;;;;6.88;4.10;;;2.10;99.90;;;;;;5004400;28;20229;-76
2021/01/11 12:49:32;;;;;;;4.45;3.60;;;2.10;99.90;;;;;;5002476;28;20200;-78
2021/01/11 12:51:58;;;;;;;4.77;4.07;;;2.20;99.90;;;;;;4999932;28;20216;-76
2021/01/11 12:54:24;;;;;;;4.45;3.78;;;2.20;99.90;;;;;;5014279;28;20221;-76
2021/01/11 12:56:50;;;;;;;5.68;3.67;;;2.30;99.90;;;;;;4996872;28;20703;-76
2021/01/11 12:59:16;;;;;;;3.60;3.03;;;2.40;99.90;;;;;;5008146;28;20198;-78